Wetterstation Rottenburg Seebronn / 442m msl / http://mut-lambrecht.de
LETZTE AKTUALISIERUNG UM: 17:20 DATUM: Juni 22 2024, time of next update: 17:25
Aktuelles Wettermostly clear - light rain; Cumulonimbus clouds observed Aktuelle Temperatur 16.8°C (62.2°F), Apparent temp 17.3°C
Höchsttemperatur (seit Mitternacht)22.7°C um: 11:59 Tiefsttemperatur (seit Mitternacht)13.8°C um: 05:03
Windgeschwindigkeit (10 Minuten )1.7 kmh (0.9 kts) Windrichtung (Dir) (10 Minuten )SSW (205°)
Windchill Temperatur 16.8°C Windspitzen (letzte Std)9.6 kmh (5.2 kts) um: 17:15
Windspitzen (seit Mitternacht)36.0 kmh (19.5 kts) um: 14:11 Höchstes Windmittel / Minute (seit Mitternacht)17.3 kmh (9.4 kts) um: 14:01
Regenmenge (letzte Std)0.7 mm Regenmenge (seit Mitternacht)4.2 mm (0.17 in.) at 16:39
Regenmenge diesen Monat 83.7 mm (3.30 in.) Regenmenge seit Jahresbeginn 427.8 mm (16.84 in.)
Höchste Regenmenge pro Minute (letzte Std)0.0 mm/min Höchste Regenmenge pro Stunde (letzte 6 Std)0.0 mm/stunde
Regenmenge Gestern 4.2 mm Taupunkt 13.3°C (Wet Bulb :14.8°C )
Luftfeuchtigkeit 80 %, Humidex 19.8°C Aktueller Luftdruck (auf Meereshöhe bezogen)1017.0 hPa
Luftdrucktendenz -0.3 hPa (letzte Std) Trend (letzte 1 Std)gleichbleibend
Luftdrucktendenz (letzte 12 Std)+1.1 hPa Luftdrucktendenz (letzte 6 Std)+1.0 hPa



Weather report/warning/Metars

Stuttgart-Echterdingen, Germany (EDDS) 48-41N 009-13E 391M
Jun 22, 2024 - 10:50 AM EDT / 2024.06.22 1450 UTC
Wind: from the SW (220 degrees) at 2 MPH (2 KT):0
Visibility: greater than 7 mile(s):0
Sky conditions: mostly clear
Weather: light rain; Cumulonimbus clouds observed
Temperature: 57 F (14 C)
Dew Point: 55 F (13 C)
Relative Humidity: 93%
Pressure (altimeter): 30.00 in. Hg (1016 hPa)
ob: EDDS 221450Z AUTO 22002KT 9999 -RA FEW047 14/13 Q1016 TEMPO SHRA BKN030CB
cycle: 15
Karlsruhe, Baden Wurttemberg, Germany (EDSB) 48-46-43N 008-04-47E
Jun 22, 2024 - 10:50 AM EDT / 2024.06.22 1450 UTC
Wind: from the SSW (200 degrees) at 8 MPH (7 KT):0
Visibility: greater than 7 mile(s):0
Sky conditions: partly cloudy
Temperature: 62 F (17 C)
Dew Point: 57 F (14 C)
Relative Humidity: 82%
Pressure (altimeter): 30.00 in. Hg (1016 hPa)
ob: EDSB 221450Z 20007KT 9999 FEW018 SCT022 17/14 Q1016
cycle: 15
Lahr, CAN-AFB, Germany (EDTL) 48-22-09N 007-49-40E
Jun 22, 2024 - 10:50 AM EDT / 2024.06.22 1450 UTC
Wind: from the S (170 degrees) at 9 MPH (8 KT):0
Visibility: greater than 7 mile(s):0
Sky conditions: mostly cloudy
Temperature: 60 F (16 C)
Dew Point: 55 F (13 C)
Relative Humidity: 82%
Pressure (altimeter): 30.00 in. Hg (1016 hPa)
ob: EDTL 221450Z 17008KT 9999 FEW012 SCT024 BKN035 16/13 Q1016
cycle: 15
Laupheim, Germany (ETHL) 48-13N 009-55E 550M
Jun 22, 2024 - 10:20 AM EDT / 2024.06.22 1420 UTC
Wind: from the NW (320 degrees) at 7 MPH (6 KT):0
Visibility: greater than 7 mile(s):0
Temperature: 59 F (15 C)
Dew Point: 55 F (13 C)
Relative Humidity: 87%
Pressure (altimeter): 29.97 in. Hg (1015 hPa)
ob: ETHL 221420Z AUTO 32006KT 9999 // ////// 15/13 Q1015 ///
cycle: 14


Klicken Sie hier, um zu den Durchschnitts-, Extrem-, Monats- oder Tageswerten zu gelangen


Die Wetterdaten werden alle 5 Minuten aktualisiert.
Die 3 stündige Echtzeitgrafik wird jede Minute aktualisiert.
Bei der 3 stündige Echtzeitgrafik sind derzeit die Skalenfarben von Winddurchschnitt u. Windböen vertauscht. (Softwarebug)

Drücken Sie gegebenenfalls auf "Aktualisieren" in Ihrem Browser, um die aktuellsten Daten zu erhalten.